createdAt,value
2019-02-21T07:42:03.298Z,121.02
2019-02-21T07:44:32.652Z,108.75
2019-02-21T07:47:03.024Z,112.28
2019-02-21T07:49:33.478Z,113.95
2019-02-21T07:52:05.462Z,109.05
2019-02-21T07:54:34.518Z,107.07
2019-02-21T07:57:04.237Z,120.13
2019-02-21T07:59:35.395Z,111.22
2019-02-21T08:02:06.600Z,106.25
2019-02-21T08:04:37.106Z,109.83
2019-02-21T08:07:06.879Z,113.65
2019-02-21T08:09:38.037Z,106.05
2019-02-21T08:12:07.665Z,110.37
2019-02-21T08:14:37.290Z,103.75
2019-02-21T08:17:08.052Z,109.50
2019-02-21T08:19:39.730Z,109.92
2019-02-21T08:22:10.488Z,106.63
2019-02-21T08:24:46.007Z,110.90
2019-02-21T08:27:16.264Z,105.63
2019-02-21T08:30:00.833Z,111.75
2019-02-21T08:32:32.061Z,104.85
2019-02-21T08:35:03.248Z,106.20
2019-02-21T08:37:36.049Z,109.27
2019-02-21T08:40:07.037Z,104.00
2019-02-21T08:42:36.443Z,103.72
2019-02-21T08:45:06.047Z,107.37
2019-02-21T08:47:37.279Z,110.75
2019-02-21T08:50:08.202Z,101.97
2019-02-21T08:52:37.697Z,104.15
2019-02-21T08:55:07.986Z,106.30
2019-02-21T08:57:37.589Z,103.70
2019-02-21T09:00:13.854Z,99.25
2019-02-21T09:02:43.753Z,94.97
2019-02-21T09:05:14.861Z,107.45
2019-02-21T09:07:46.442Z,97.08
2019-02-21T09:10:19.166Z,97.27
2019-02-21T09:12:48.806Z,91.92
2019-02-21T09:15:18.669Z,90.90
2019-02-21T09:17:48.273Z,97.17
2019-02-21T09:20:17.884Z,100.75
2019-02-21T09:22:48.600Z,95.42
2019-02-21T09:25:18.203Z,90.25
2019-02-21T09:27:47.737Z,84.22
2019-02-21T09:30:20.040Z,88.45
2019-02-21T09:32:50.436Z,91.50
2019-02-21T09:35:20.106Z,85.03
2019-02-21T09:37:54.190Z,82.25
2019-02-21T09:40:25.553Z,82.80
2019-02-21T09:42:56.842Z,85.67
2019-02-21T09:45:32.667Z,81.60
2019-02-21T09:48:05.376Z,82.05
2019-02-21T09:50:39.288Z,78.67
2019-02-21T09:53:10.701Z,80.72
2019-02-21T09:55:43.474Z,77.90
2019-02-21T09:58:13.543Z,73.87
2019-02-21T10:00:48.088Z,69.72
2019-02-21T10:03:23.262Z,69.17
2019-02-21T10:40:15.016Z,62.07
2019-02-21T10:42:44.491Z,64.90
2019-02-21T10:45:19.774Z,70.45
2019-02-21T10:47:51.519Z,68.02
2019-02-21T10:50:26.216Z,68.52
2019-02-21T10:52:57.944Z,65.75
2019-02-21T10:55:28.441Z,68.50
2019-02-21T10:58:03.566Z,60.65
2019-02-21T11:00:58.124Z,60.73
2019-02-21T11:03:38.020Z,67.92
2019-02-21T11:06:15.250Z,69.92
2019-02-21T11:08:53.169Z,65.72
2019-02-21T11:11:22.845Z,67.25
2019-02-21T11:13:54.106Z,68.75
2019-02-21T11:16:23.662Z,62.88
2019-02-21T11:18:53.298Z,66.35
2019-02-21T11:21:22.877Z,66.28
2019-02-21T11:23:52.397Z,65.42
2019-02-21T11:26:26.847Z,66.50
2019-02-21T11:28:57.264Z,65.70
2019-02-21T11:31:33.635Z,66.17
2019-02-21T11:34:06.424Z,62.90
2019-02-21T11:55:50.513Z,59.80
2019-02-21T11:58:38.452Z,58.75
2019-02-21T12:01:09.926Z,58.90
2019-02-21T12:03:41.025Z,57.67
2019-02-21T12:06:10.450Z,59.40
2019-02-21T12:08:46.220Z,56.75
2019-02-21T12:28:52.442Z,55.05
2019-02-21T12:31:22.688Z,53.40
2019-02-21T12:33:52.622Z,58.98
2019-02-21T12:36:22.199Z,51.42
2019-02-21T12:38:52.792Z,51.30
2019-02-21T12:41:22.337Z,49.15
2019-02-21T12:44:09.017Z,48.20
2019-02-21T13:08:31.896Z,30.52
2019-02-21T14:18:21.184Z,18.15
2019-02-21T14:42:24.988Z,19.15
2019-02-21T14:44:58.488Z,23.52
2019-02-21T14:47:29.519Z,18.95
2019-02-21T14:50:04.850Z,20.85
2019-02-21T14:52:38.571Z,20.65
2019-02-21T14:55:25.540Z,17.30
2019-02-21T14:58:19.206Z,18.73
2019-02-21T15:00:42.644Z,21.23
2019-02-21T15:03:21.436Z,21.35
2019-02-21T15:06:01.591Z,22.42
2019-02-21T15:08:42.826Z,21.87
2019-02-21T15:11:13.307Z,19.57
2019-02-21T15:13:43.673Z,18.35
2019-02-21T15:19:26.392Z,16.82
2019-02-21T15:28:35.154Z,18.45
2019-02-21T15:31:09.151Z,16.90
2019-02-21T15:54:33.125Z,17.45
2019-02-21T16:00:12.608Z,19.73
2019-02-21T16:02:45.903Z,28.00
2019-02-21T16:05:17.627Z,19.42
2019-02-21T16:07:54.592Z,17.23
2019-02-21T16:10:31.275Z,19.42
2019-02-21T16:13:04.186Z,18.87
2019-02-21T16:18:45.661Z,20.37
2019-02-21T16:21:21.159Z,18.60
2019-02-21T16:23:50.995Z,26.00
2019-02-21T16:26:24.663Z,20.80
2019-02-21T16:29:04.140Z,20.88
2019-02-21T16:31:33.622Z,19.07
2019-02-21T16:34:09.234Z,22.17
2019-02-21T16:36:39.771Z,22.65
2019-02-21T16:39:15.766Z,26.52
2019-02-21T16:41:55.309Z,24.02
2019-02-21T16:44:24.926Z,28.67
2019-02-21T16:46:54.315Z,32.48
2019-02-21T16:49:26.793Z,29.55
2019-02-21T16:51:59.034Z,32.90
2019-02-21T16:54:29.178Z,38.88
2019-02-21T16:56:58.663Z,35.35
2019-02-21T16:59:34.389Z,33.83
2019-02-21T17:02:03.925Z,37.50
2019-02-21T19:00:15.294Z,46.02
2019-02-21T19:37:03.670Z,51.35
2019-02-21T19:39:33.395Z,53.68
2019-02-21T19:42:04.970Z,57.85
2019-02-21T19:44:34.603Z,47.75
2019-02-21T19:47:04.808Z,55.88
2019-02-21T19:49:37.037Z,56.80
2019-02-21T20:19:33.443Z,58.92
2019-02-21T20:22:10.082Z,69.85
2019-02-21T20:24:40.098Z,63.53
2019-02-21T20:27:20.813Z,66.87
2019-02-21T20:29:54.027Z,62.33
2019-02-21T20:32:27.210Z,66.82
2019-02-21T20:34:58.336Z,64.53
2019-02-21T20:37:30.847Z,59.83
2019-02-21T20:40:03.843Z,65.37
2019-02-21T20:42:35.722Z,61.70
2019-02-21T20:45:15.806Z,67.72
2019-02-21T20:47:46.049Z,67.50
2019-02-21T20:50:19.572Z,64.58
2019-02-21T20:52:51.982Z,60.95
2019-02-21T20:55:21.577Z,59.73
2019-02-21T20:57:53.915Z,72.80
2019-02-21T21:00:23.575Z,64.90
2019-02-21T21:02:53.150Z,61.95
2019-02-21T21:05:22.663Z,57.17
2019-02-21T21:07:51.973Z,58.70
2019-02-21T21:10:21.939Z,65.95
2019-02-21T21:12:52.419Z,61.70
2019-02-21T21:15:22.061Z,60.98
2019-02-21T21:17:51.492Z,60.83
2019-02-21T21:20:21.109Z,67.55
2019-02-21T21:22:50.761Z,70.00
2019-02-21T22:54:33.905Z,78.80
2019-02-21T22:57:19.103Z,83.30
2019-02-21T22:59:47.811Z,74.53
2019-02-21T23:02:36.439Z,80.72
2019-02-21T23:05:28.063Z,85.07
2019-02-21T23:11:04.254Z,87.95
2019-02-21T23:13:21.681Z,75.17
2019-02-21T23:19:11.814Z,84.30
2019-02-21T23:21:45.840Z,78.65
2019-02-21T23:24:18.768Z,83.03
2019-02-21T23:26:52.870Z,77.25
2019-02-21T23:32:24.412Z,78.37
2019-02-21T23:34:57.985Z,82.82
2019-02-21T23:40:39.021Z,78.62
2019-02-21T23:43:22.043Z,82.33
2019-02-21T23:46:06.526Z,83.10
2019-02-21T23:49:21.135Z,77.67
2019-02-21T23:55:13.267Z,75.20
2019-02-21T23:57:42.925Z,92.20
